Airfield :
LOGIN :

Register | Disclaimer

   EN    FR    IT 

 










Legend :    VFR   Marginal VFR   IFR   Intensive IFR   Very Intensive IFR
Visi :
Ceiling :
>= 8 km
>= 3000ft
5 to 8 km
1000 to 3000 ft
1500m to 5 km
500 to 1000 ft
800 to 1500m
200 to 500 ft
< 800m
< 200 ft
Symbols :   Thunderstorms  Fog  Heavy snow  Heavy precipitations  Wind > 20 kt
SIGMETs :     Misc.  Thunderstorms  Icing  Turbulence  Mountain Waves  Volcanic Ashes






- Airport Elevation : 147 ft
- IATA code : DUS


EDDL - Düsseldorf Int.

CURRENT METAR :
  • 200020Z 10003KT 9999 -RA FEW022 11/11 Q1007 NOSIG

EXPIRED METARs :
  • 192350Z 17003KT 9999 -RA FEW022 11/11 Q1007 NOSIG
  • 192320Z 16003KT 9999 FEW022 12/11 Q1007 NOSIG
  • 192250Z 17005KT 9999 FEW022 12/11 Q1007 NOSIG
  • 192220Z 16005KT 9999 FEW022 BKN042 12/11 Q1007 NOSIG
  • 192150Z 17005KT 9999 FEW022 BKN048 12/11 Q1007 NOSIG

TAF TAF EDDL
Valid from the 20 at 00:00 until the 21 at 06:00 UTC


192300Z 2000/2106 14005KT 9999 BKN025
BECMG 2005/2009 03005KT
BECMG 2010/2013 4500 RA BKN008
BECMG 2016/2018 NSW
TEMPO 2018/2104 2500 DZ BKN004
BECMG 2102/2106 18006KT 9999 SCT005 BKN015



MET'MAP, your aeronautical weather chart ! - Copyright ORBIFLY December 2007 - Disclaimer

ORBIFLY MET'MAP TEAM :

Programming & Development : Alexandra Zaïnal
Concept & Development : Baudouin d'Aumeries
Co-Development & Prog : Marc-Olivier Méhu
Technical & hardware support : Manuel Goepfert

Contact : metmap@orbifly.com




SOURCES & CREDITS :

   NOAA